createdAt,value
2022-09-29T00:00:35.591Z,3.97
2022-09-29T00:03:03.320Z,3.10
2022-09-29T00:05:31.303Z,3.10
2022-09-29T00:07:59.162Z,3.60
2022-09-29T00:10:26.841Z,3.10
2022-09-29T00:12:56.164Z,3.10
2022-09-29T00:15:23.823Z,3.13
2022-09-29T00:18:12.554Z,3.20
2022-09-29T00:20:40.800Z,3.13
2022-09-29T00:23:08.572Z,3.30
2022-09-29T00:25:36.261Z,3.60
2022-09-29T00:28:05.412Z,3.28
2022-09-29T00:30:33.092Z,3.60
2022-09-29T00:33:01.950Z,4.00
2022-09-29T00:35:29.691Z,3.60
2022-09-29T00:37:57.300Z,3.35
2022-09-29T00:40:24.976Z,3.10
2022-09-29T00:42:52.614Z,3.40
2022-09-29T00:45:24.239Z,3.25
2022-09-29T00:48:04.041Z,3.70
2022-09-29T00:50:42.520Z,3.05
2022-09-29T00:53:16.747Z,3.33
2022-09-29T00:55:52.870Z,2.83
2022-09-29T00:58:29.945Z,3.03
2022-09-29T01:01:00.753Z,3.50
2022-09-29T01:03:32.325Z,3.05
2022-09-29T01:06:03.967Z,3.50
2022-09-29T01:08:37.652Z,3.25
2022-09-29T01:11:06.178Z,2.95
2022-09-29T01:13:35.606Z,3.10
2022-09-29T01:16:04.632Z,3.30
2022-09-29T01:18:33.433Z,3.45
2022-09-29T01:21:13.089Z,3.45
2022-09-29T01:24:06.698Z,3.13
2022-09-29T01:26:59.846Z,3.65
2022-09-29T01:29:47.987Z,3.15
2022-09-29T01:32:24.787Z,3.00
2022-09-29T01:35:03.917Z,3.78
2022-09-29T01:37:44.046Z,3.45
2022-09-29T01:40:16.380Z,3.03
2022-09-29T01:42:53.527Z,2.90
2022-09-29T01:45:27.324Z,3.65
2022-09-29T01:48:01.361Z,3.33
2022-09-29T01:50:33.443Z,3.33
2022-09-29T01:53:04.878Z,3.28
2022-09-29T01:55:36.410Z,2.67
2022-09-29T01:58:07.591Z,2.72
2022-09-29T02:00:40.177Z,3.00
2022-09-29T02:03:16.169Z,2.92
2022-09-29T02:05:48.153Z,3.13
2022-09-29T02:08:20.904Z,3.35
2022-09-29T02:10:51.955Z,3.33
2022-09-29T02:13:22.643Z,2.70
2022-09-29T02:15:54.659Z,3.13
2022-09-29T02:18:28.381Z,3.80
2022-09-29T02:20:56.159Z,3.30
2022-09-29T02:23:23.889Z,3.05
2022-09-29T02:25:52.984Z,3.15
2022-09-29T02:28:20.794Z,3.38
2022-09-29T02:30:51.236Z,3.17
2022-09-29T02:33:21.271Z,3.10
2022-09-29T02:36:00.816Z,3.08
2022-09-29T02:38:36.554Z,2.88
2022-09-29T02:41:13.623Z,3.00
2022-09-29T02:43:57.907Z,2.92
2022-09-29T02:46:42.004Z,2.10
2022-09-29T02:49:35.648Z,3.10
2022-09-29T02:52:17.798Z,2.80
2022-09-29T02:54:56.396Z,3.03
2022-09-29T02:57:29.909Z,2.80
2022-09-29T03:00:07.733Z,2.70
2022-09-29T03:02:35.763Z,3.00
2022-09-29T03:05:03.806Z,2.72
2022-09-29T03:07:33.416Z,5.05
2022-09-29T03:10:01.354Z,4.28
2022-09-29T03:12:29.004Z,4.15
2022-09-29T03:14:56.664Z,3.50
2022-09-29T03:17:24.619Z,3.17
2022-09-29T03:19:52.175Z,2.90
2022-09-29T03:22:19.963Z,2.78
2022-09-29T03:24:48.984Z,2.90
2022-09-29T03:27:16.597Z,2.92
2022-09-29T03:29:44.266Z,3.00
2022-09-29T03:32:12.057Z,3.30
2022-09-29T03:34:39.745Z,3.10
2022-09-29T03:37:07.342Z,3.42
2022-09-29T03:39:35.080Z,2.63
2022-09-29T03:42:04.052Z,3.40
2022-09-29T03:44:31.650Z,2.80
2022-09-29T03:46:59.284Z,2.50
2022-09-29T03:49:26.958Z,2.90
2022-09-29T03:51:54.552Z,3.03
2022-09-29T03:54:24.231Z,2.92
2022-09-29T03:56:51.853Z,3.15
2022-09-29T03:59:20.955Z,3.20
2022-09-29T04:01:48.715Z,3.17
2022-09-29T04:04:16.343Z,2.53
2022-09-29T04:06:44.094Z,2.95
2022-09-29T04:09:12.009Z,3.67
2022-09-29T04:11:39.841Z,3.38
2022-09-29T04:14:07.779Z,2.70
2022-09-29T04:16:36.784Z,3.00
2022-09-29T04:19:04.540Z,3.15
2022-09-29T04:21:32.159Z,3.50
2022-09-29T04:23:59.869Z,2.85
2022-09-29T04:26:27.520Z,3.22
2022-09-29T04:28:56.435Z,3.28
2022-09-29T04:31:24.156Z,3.85
2022-09-29T04:33:53.437Z,3.95
2022-09-29T04:36:21.112Z,4.10
2022-09-29T04:38:50.228Z,3.70
2022-09-29T04:41:18.226Z,3.85
2022-09-29T04:43:45.843Z,3.60
2022-09-29T04:46:15.112Z,3.50
2022-09-29T04:48:42.876Z,3.90
2022-09-29T04:51:11.905Z,3.53
2022-09-29T04:53:39.559Z,4.05
2022-09-29T04:56:09.014Z,3.60
2022-09-29T04:58:36.756Z,3.60
2022-09-29T05:01:09.194Z,3.53
2022-09-29T05:03:36.969Z,3.75
2022-09-29T05:06:04.842Z,4.00
2022-09-29T05:08:33.904Z,3.72
2022-09-29T05:11:05.484Z,4.00
2022-09-29T05:13:33.474Z,3.42
2022-09-29T05:16:03.188Z,3.42
2022-09-29T05:18:31.311Z,3.72
2022-09-29T05:21:26.663Z,3.90
2022-09-29T05:23:54.399Z,3.30
2022-09-29T05:26:22.114Z,3.78
2022-09-29T05:28:50.045Z,3.67
2022-09-29T05:31:18.230Z,3.55
2022-09-29T05:33:46.081Z,3.70
2022-09-29T05:36:14.325Z,3.65
2022-09-29T05:38:42.048Z,3.42
2022-09-29T05:41:13.157Z,3.65
2022-09-29T05:43:41.518Z,3.90
2022-09-29T05:46:11.233Z,3.53
2022-09-29T05:48:39.412Z,4.03
2022-09-29T05:51:12.074Z,3.55
2022-09-29T05:53:40.064Z,5.05
2022-09-29T05:56:08.659Z,3.85
2022-09-29T05:58:38.028Z,4.30
2022-09-29T06:01:10.503Z,4.10
2022-09-29T06:03:39.274Z,4.28
2022-09-29T06:06:08.355Z,3.97
2022-09-29T06:08:36.848Z,4.63
2022-09-29T06:11:06.604Z,4.35
2022-09-29T06:13:35.167Z,4.10
2022-09-29T06:16:04.522Z,3.95
2022-09-29T06:18:32.532Z,4.50
2022-09-29T06:21:04.570Z,4.25
2022-09-29T06:23:32.219Z,3.90
2022-09-29T06:26:02.087Z,3.78
2022-09-29T06:28:29.966Z,4.05
2022-09-29T06:31:00.617Z,4.10
2022-09-29T06:33:30.085Z,4.72
2022-09-29T06:36:16.106Z,4.20
2022-09-29T06:38:43.870Z,4.50
2022-09-29T06:41:11.564Z,5.07
2022-09-29T06:43:39.195Z,4.40
2022-09-29T06:46:07.181Z,4.60
2022-09-29T06:48:37.692Z,4.57
2022-09-29T06:51:10.398Z,4.70
2022-09-29T06:53:39.210Z,4.10
2022-09-29T06:56:08.966Z,4.70
2022-09-29T06:58:36.743Z,4.10
2022-09-29T07:01:06.001Z,4.28
2022-09-29T07:03:35.205Z,4.60
2022-09-29T07:06:19.240Z,6.20
2022-09-29T07:08:47.737Z,4.65
2022-09-29T07:11:16.536Z,4.67
2022-09-29T07:13:44.195Z,5.18
2022-09-29T07:16:14.310Z,4.53
2022-09-29T07:18:43.688Z,4.43
2022-09-29T07:21:15.978Z,4.30
2022-09-29T07:23:43.600Z,4.65
2022-09-29T07:26:11.256Z,3.70
2022-09-29T07:28:39.497Z,4.50
2022-09-29T07:31:14.817Z,4.80
2022-09-29T07:33:43.189Z,4.77
2022-09-29T07:36:12.539Z,4.70
2022-09-29T07:38:40.204Z,5.30
2022-09-29T07:41:10.008Z,5.07
2022-09-29T07:43:37.840Z,4.63
2022-09-29T07:46:06.107Z,4.77
2022-09-29T07:48:34.890Z,4.00
2022-09-29T07:51:03.510Z,4.93
2022-09-29T07:53:34.347Z,4.50
2022-09-29T07:56:04.342Z,4.57
2022-09-29T07:58:33.323Z,4.60
2022-09-29T08:01:01.923Z,4.63
2022-09-29T08:03:30.317Z,5.30
2022-09-29T08:05:59.206Z,5.40
2022-09-29T08:08:27.604Z,5.07
2022-09-29T08:11:04.066Z,5.07
2022-09-29T08:13:33.058Z,5.00
2022-09-29T08:16:01.625Z,5.37
2022-09-29T08:18:30.183Z,5.23
2022-09-29T08:21:01.278Z,5.33
2022-09-29T08:23:32.487Z,4.90
2022-09-29T08:26:03.636Z,4.40
2022-09-29T08:28:32.635Z,4.90
2022-09-29T08:31:04.470Z,4.60
2022-09-29T08:33:33.019Z,5.60
2022-09-29T08:36:03.668Z,4.50
2022-09-29T08:38:33.229Z,4.30
2022-09-29T08:41:06.114Z,4.77
2022-09-29T08:43:38.673Z,4.00
2022-09-29T08:46:12.652Z,4.80
2022-09-29T08:48:55.847Z,4.70
2022-09-29T08:51:40.832Z,4.33
2022-09-29T08:54:34.638Z,4.30
2022-09-29T08:57:08.709Z,3.87
2022-09-29T08:59:37.955Z,4.37
2022-09-29T09:02:23.767Z,4.10
2022-09-29T09:05:19.367Z,4.23
2022-09-29T09:08:00.587Z,4.37
2022-09-29T09:10:44.209Z,4.80
2022-09-29T09:13:27.479Z,4.70
2022-09-29T09:16:14.450Z,4.37
2022-09-29T09:19:05.155Z,4.10
2022-09-29T09:21:41.231Z,3.90
2022-09-29T09:24:21.572Z,4.07
2022-09-29T09:26:52.442Z,3.37
2022-09-29T09:29:33.857Z,3.30
2022-09-29T09:32:08.153Z,3.40
2022-09-29T09:34:44.256Z,3.37
2022-09-29T09:37:17.052Z,4.00
2022-09-29T09:39:50.549Z,3.00
2022-09-29T09:42:22.631Z,3.50
2022-09-29T09:44:58.179Z,3.27
2022-09-29T09:47:28.078Z,3.50
2022-09-29T09:49:59.026Z,3.30
2022-09-29T09:52:33.217Z,3.27
2022-09-29T09:55:04.471Z,3.33
2022-09-29T09:57:55.997Z,3.40
2022-09-29T10:00:29.487Z,3.30
2022-09-29T10:02:59.116Z,3.03
2022-09-29T10:05:34.267Z,2.50
2022-09-29T10:08:02.140Z,2.90
2022-09-29T10:10:30.474Z,2.40
2022-09-29T10:13:02.980Z,2.20
2022-09-29T10:15:37.149Z,2.20
2022-09-29T10:18:08.577Z,2.30
2022-09-29T10:20:38.530Z,2.30
2022-09-29T10:23:26.403Z,2.53
2022-09-29T10:26:01.838Z,2.50
2022-09-29T10:28:38.307Z,2.17
2022-09-29T10:31:18.511Z,2.40
2022-09-29T10:33:56.800Z,2.10
2022-09-29T10:36:25.601Z,2.47
2022-09-29T10:38:59.597Z,2.60
2022-09-29T10:41:31.731Z,2.40
2022-09-29T10:44:20.755Z,2.73
2022-09-29T10:46:54.018Z,2.30
2022-09-29T10:49:23.530Z,2.73
2022-09-29T10:51:57.296Z,2.20
2022-09-29T10:54:26.794Z,1.77
2022-09-29T10:56:55.944Z,2.27
2022-09-29T10:59:25.363Z,2.40
2022-09-29T11:01:57.674Z,1.90
2022-09-29T11:04:29.020Z,2.40
2022-09-29T11:06:57.440Z,1.90
2022-09-29T11:09:30.715Z,2.30
2022-09-29T11:12:01.544Z,2.10
2022-09-29T11:14:40.559Z,2.00
2022-09-29T11:17:23.484Z,2.00
2022-09-29T11:19:51.871Z,2.00
2022-09-29T11:22:49.177Z,2.40
2022-09-29T11:25:48.065Z,2.10
2022-09-29T11:28:32.173Z,2.73
2022-09-29T11:31:12.833Z,2.57
2022-09-29T11:33:54.763Z,2.00
2022-09-29T11:36:28.751Z,1.90
2022-09-29T11:39:21.543Z,1.93
2022-09-29T11:41:59.353Z,2.20
2022-09-29T11:44:54.214Z,2.30
2022-09-29T11:47:35.789Z,2.30
2022-09-29T11:50:19.839Z,1.83
2022-09-29T11:53:15.171Z,2.07
2022-09-29T11:55:54.678Z,1.80
2022-09-29T11:58:35.987Z,2.10
2022-09-29T12:01:26.940Z,1.57
2022-09-29T12:04:11.299Z,2.90
2022-09-29T12:06:58.162Z,2.47
2022-09-29T12:09:41.893Z,1.87
2022-09-29T12:12:23.593Z,1.70
2022-09-29T12:15:19.257Z,1.63
2022-09-29T12:17:50.555Z,1.53
2022-09-29T12:20:24.061Z,1.40
2022-09-29T12:22:55.747Z,1.60
2022-09-29T12:25:27.465Z,1.57
2022-09-29T12:28:01.700Z,1.37
2022-09-29T12:30:31.786Z,1.80
2022-09-29T12:33:05.527Z,1.70
2022-09-29T12:35:39.628Z,1.50
2022-09-29T12:38:17.230Z,1.90
2022-09-29T12:40:51.279Z,1.80
2022-09-29T12:43:24.093Z,1.53
2022-09-29T12:45:57.577Z,1.60
2022-09-29T12:48:35.246Z,1.60
2022-09-29T12:51:10.650Z,1.67
2022-09-29T12:53:54.201Z,1.50
2022-09-29T12:56:27.272Z,1.60
2022-09-29T12:58:59.557Z,2.27
2022-09-29T13:01:29.981Z,1.57
2022-09-29T13:04:21.600Z,1.57
2022-09-29T13:07:13.701Z,1.70
2022-09-29T13:10:19.930Z,2.00
2022-09-29T13:13:14.083Z,1.87
2022-09-29T13:15:59.166Z,1.70
2022-09-29T13:18:59.699Z,2.40
2022-09-29T13:21:45.812Z,2.03
2022-09-29T13:24:33.806Z,1.67
2022-09-29T13:27:26.417Z,1.50
2022-09-29T13:29:59.946Z,1.80
2022-09-29T13:32:27.884Z,1.40
2022-09-29T13:34:58.185Z,2.10
2022-09-29T13:37:29.996Z,1.77
2022-09-29T13:40:03.561Z,1.60
2022-09-29T13:42:45.748Z,1.47
2022-09-29T13:45:34.438Z,1.67
2022-09-29T13:48:04.189Z,1.90
2022-09-29T13:50:41.785Z,1.40
2022-09-29T13:53:34.859Z,1.60
2022-09-29T13:56:12.177Z,1.70
2022-09-29T13:59:00.230Z,1.50
2022-09-29T14:01:33.643Z,1.60
2022-09-29T14:04:37.550Z,1.70
2022-09-29T14:07:08.008Z,1.77
2022-09-29T14:09:39.698Z,2.07
2022-09-29T14:12:11.004Z,1.83
2022-09-29T14:14:44.069Z,1.70
2022-09-29T14:17:16.330Z,1.97
2022-09-29T14:19:52.727Z,2.43
2022-09-29T14:23:03.256Z,1.93
2022-09-29T14:25:55.395Z,1.70
2022-09-29T14:28:39.609Z,2.30
2022-09-29T14:31:21.152Z,2.10
2022-09-29T14:33:52.744Z,2.03
2022-09-29T14:36:24.884Z,2.27
2022-09-29T14:39:21.451Z,2.30
2022-09-29T14:41:45.616Z,2.07
2022-09-29T14:44:18.248Z,2.50
2022-09-29T14:47:38.999Z,2.10
2022-09-29T14:50:44.859Z,2.37
2022-09-29T14:53:23.689Z,2.07
2022-09-29T14:56:04.662Z,2.40
2022-09-29T14:58:44.843Z,2.17
2022-09-29T15:01:22.059Z,2.30
2022-09-29T15:03:53.038Z,2.50
2022-09-29T15:06:22.240Z,1.80
2022-09-29T15:08:56.301Z,2.47
2022-09-29T15:11:26.740Z,2.83
2022-09-29T15:13:55.719Z,2.20
2022-09-29T15:16:30.938Z,2.47
2022-09-29T15:19:24.166Z,2.57
2022-09-29T15:21:59.936Z,2.70
2022-09-29T15:24:42.443Z,2.27
2022-09-29T15:27:14.581Z,2.93
2022-09-29T15:29:47.468Z,2.80
2022-09-29T15:32:23.943Z,4.00
2022-09-29T15:34:56.207Z,2.63
2022-09-29T15:37:24.050Z,3.10
2022-09-29T15:39:54.419Z,2.93
2022-09-29T15:42:24.499Z,3.27
2022-09-29T15:44:58.233Z,3.07
2022-09-29T15:47:35.627Z,3.90
2022-09-29T15:50:17.272Z,2.70
2022-09-29T15:52:45.155Z,3.07
2022-09-29T15:55:16.913Z,3.97
2022-09-29T15:57:50.328Z,2.90
2022-09-29T16:00:48.490Z,3.67
2022-09-29T16:03:24.034Z,3.23
2022-09-29T16:06:04.433Z,2.80
2022-09-29T16:08:38.095Z,2.67
2022-09-29T16:11:09.162Z,2.70
2022-09-29T16:13:40.864Z,2.67
2022-09-29T16:16:11.269Z,3.47
2022-09-29T16:18:43.387Z,2.50
2022-09-29T16:21:14.583Z,2.50
2022-09-29T16:23:45.366Z,2.70
2022-09-29T16:26:19.508Z,2.93
2022-09-29T16:29:08.879Z,2.80
2022-09-29T16:31:39.569Z,2.50
2022-09-29T16:34:24.208Z,2.37
2022-09-29T16:36:54.762Z,2.73
2022-09-29T16:39:25.545Z,2.80
2022-09-29T16:41:55.323Z,2.57
2022-09-29T16:44:29.118Z,2.57
2022-09-29T16:47:00.144Z,2.73
2022-09-29T16:49:31.982Z,2.50
2022-09-29T16:52:04.632Z,3.17
2022-09-29T16:54:34.065Z,2.70
2022-09-29T16:57:19.159Z,3.17
2022-09-29T16:59:47.225Z,2.80
2022-09-29T17:02:15.544Z,2.63
2022-09-29T17:04:43.303Z,2.63
2022-09-29T17:07:15.986Z,3.20
2022-09-29T17:09:47.398Z,2.70
2022-09-29T17:12:16.516Z,3.83
2022-09-29T17:14:47.768Z,4.73
2022-09-29T17:17:19.524Z,5.80
2022-09-29T17:19:47.244Z,5.97
2022-09-29T17:22:26.490Z,3.53
2022-09-29T17:24:54.137Z,3.20
2022-09-29T17:27:40.395Z,3.70
2022-09-29T17:30:09.387Z,3.07
2022-09-29T17:32:37.639Z,4.50
2022-09-29T17:35:06.967Z,2.90
2022-09-29T17:37:37.961Z,3.23
2022-09-29T17:40:18.808Z,2.60
2022-09-29T17:42:47.224Z,2.87
2022-09-29T17:45:17.250Z,2.87
2022-09-29T17:47:45.111Z,3.10
2022-09-29T17:50:22.943Z,3.63
2022-09-29T17:52:52.201Z,2.93
2022-09-29T17:55:24.206Z,4.47
2022-09-29T17:57:53.728Z,4.30
2022-09-29T18:00:25.179Z,3.97
2022-09-29T18:02:56.945Z,5.23
2022-09-29T18:05:25.385Z,4.10
2022-09-29T18:07:56.263Z,3.80
2022-09-29T18:10:27.793Z,3.83
2022-09-29T18:12:55.744Z,4.80
2022-09-29T18:15:24.455Z,3.85
2022-09-29T18:17:56.618Z,4.68
2022-09-29T18:20:25.375Z,4.53
2022-09-29T18:22:54.357Z,4.73
2022-09-29T18:25:22.153Z,4.50
2022-09-29T18:27:50.032Z,4.07
2022-09-29T18:30:20.594Z,3.10
2022-09-29T18:32:49.676Z,3.50
2022-09-29T18:35:19.423Z,3.10
2022-09-29T18:37:47.125Z,3.40
2022-09-29T18:40:16.557Z,3.87
2022-09-29T18:42:45.345Z,4.15
2022-09-29T18:45:14.581Z,3.90
2022-09-29T18:47:43.952Z,4.07
2022-09-29T18:50:15.812Z,3.80
2022-09-29T18:52:43.690Z,3.35
2022-09-29T18:55:13.291Z,3.83
2022-09-29T18:57:42.452Z,4.17
2022-09-29T19:00:14.435Z,3.87
2022-09-29T19:02:42.726Z,3.90
2022-09-29T19:05:13.270Z,4.20
2022-09-29T19:07:40.944Z,5.47
2022-09-29T19:10:09.653Z,4.87
2022-09-29T19:12:37.397Z,4.53
2022-09-29T19:15:07.462Z,4.80
2022-09-29T19:17:35.071Z,4.80
2022-09-29T19:20:02.964Z,4.50
2022-09-29T19:22:38.353Z,5.70
2022-09-29T19:25:08.023Z,4.80
2022-09-29T19:27:35.746Z,4.87
2022-09-29T19:30:04.030Z,4.50
2022-09-29T19:32:33.063Z,4.70
2022-09-29T19:35:00.851Z,4.57
2022-09-29T19:37:29.110Z,4.90
2022-09-29T19:39:57.620Z,5.40
2022-09-29T19:42:26.081Z,4.90
2022-09-29T19:44:53.857Z,4.43
2022-09-29T19:47:21.488Z,4.73
2022-09-29T19:50:10.675Z,4.30
2022-09-29T19:52:37.399Z,4.33
2022-09-29T19:55:11.015Z,5.70
2022-09-29T19:57:41.041Z,5.50
2022-09-29T20:00:11.347Z,4.40
2022-09-29T20:02:39.081Z,4.67
2022-09-29T20:05:10.819Z,3.97
2022-09-29T20:07:38.583Z,4.80
2022-09-29T20:10:07.111Z,4.50
2022-09-29T20:12:34.782Z,4.50
2022-09-29T20:15:02.426Z,4.57
2022-09-29T20:17:30.121Z,4.40
2022-09-29T20:19:57.760Z,4.57
2022-09-29T20:22:26.799Z,4.55
2022-09-29T20:24:56.037Z,5.03
2022-09-29T20:27:23.742Z,5.37
2022-09-29T20:29:51.447Z,5.40
2022-09-29T20:32:20.046Z,5.60
2022-09-29T20:34:47.933Z,5.43
2022-09-29T20:37:16.154Z,5.50
2022-09-29T20:39:45.485Z,5.70
2022-09-29T20:42:13.162Z,5.35
2022-09-29T20:44:40.783Z,5.75
2022-09-29T20:47:08.481Z,5.88
2022-09-29T20:49:36.095Z,5.65
2022-09-29T20:52:03.737Z,5.25
2022-09-29T20:54:31.900Z,5.15
2022-09-29T20:57:00.965Z,6.97
2022-09-29T20:59:32.414Z,6.97
2022-09-29T21:02:00.571Z,7.00
2022-09-29T21:04:28.648Z,5.30
2022-09-29T21:06:56.410Z,4.88
2022-09-29T21:09:25.036Z,5.18
2022-09-29T21:11:54.060Z,4.72
2022-09-29T21:14:26.546Z,4.85
2022-09-29T21:16:54.824Z,5.35
2022-09-29T21:19:26.486Z,4.85
2022-09-29T21:21:54.643Z,4.88
2022-09-29T21:24:22.481Z,5.17
2022-09-29T21:26:50.218Z,4.55
2022-09-29T21:29:19.530Z,4.32
2022-09-29T21:31:48.701Z,4.23
2022-09-29T21:34:16.667Z,4.85
2022-09-29T21:36:44.576Z,4.87
2022-09-29T21:39:14.336Z,5.03
2022-09-29T21:41:43.777Z,5.40
2022-09-29T21:44:14.998Z,5.00
2022-09-29T21:46:43.681Z,5.40
2022-09-29T21:49:14.596Z,5.25
2022-09-29T21:51:44.215Z,5.13
2022-09-29T21:54:13.448Z,4.70
2022-09-29T21:56:43.064Z,5.72
2022-09-29T21:59:11.936Z,5.00
2022-09-29T22:01:40.559Z,4.47
2022-09-29T22:04:09.290Z,5.03
2022-09-29T22:06:39.671Z,5.07
2022-09-29T22:09:09.010Z,5.38
2022-09-29T22:11:39.045Z,4.50
2022-09-29T22:14:07.444Z,5.03
2022-09-29T22:16:36.680Z,4.80
2022-09-29T22:19:22.580Z,4.82
2022-09-29T22:21:54.978Z,3.70
2022-09-29T22:24:23.815Z,4.50
2022-09-29T22:26:51.666Z,4.07
2022-09-29T22:29:19.477Z,4.57
2022-09-29T22:31:47.545Z,4.10
2022-09-29T22:34:15.244Z,4.70
2022-09-29T22:36:42.903Z,4.80
2022-09-29T22:39:12.300Z,4.53
2022-09-29T22:41:40.999Z,4.00
2022-09-29T22:44:08.827Z,4.38
2022-09-29T22:46:36.550Z,4.70
2022-09-29T22:49:05.296Z,4.95
2022-09-29T22:51:33.180Z,5.32
2022-09-29T22:54:00.788Z,5.07
2022-09-29T22:56:29.866Z,4.93
2022-09-29T22:59:01.407Z,4.65
2022-09-29T23:01:29.814Z,4.45
2022-09-29T23:03:57.667Z,4.63
2022-09-29T23:06:25.393Z,5.18
2022-09-29T23:08:54.709Z,4.90
2022-09-29T23:11:22.612Z,4.40
2022-09-29T23:13:52.783Z,4.82
2022-09-29T23:16:20.554Z,4.60
2022-09-29T23:18:52.691Z,4.13
2022-09-29T23:21:20.426Z,4.68
2022-09-29T23:23:48.537Z,3.88
2022-09-29T23:26:16.569Z,4.22
2022-09-29T23:28:44.192Z,4.75
2022-09-29T23:31:13.754Z,4.40
2022-09-29T23:33:41.646Z,3.97
2022-09-29T23:36:10.193Z,4.72
2022-09-29T23:38:56.394Z,4.60
2022-09-29T23:41:27.096Z,4.47
2022-09-29T23:43:56.552Z,4.35
2022-09-29T23:46:29.016Z,4.72
2022-09-29T23:48:57.147Z,3.90
2022-09-29T23:51:25.111Z,4.82
2022-09-29T23:53:52.730Z,4.63
2022-09-29T23:56:21.458Z,5.55
2022-09-29T23:58:49.078Z,4.70
